KUBE

Details ICAO KUBE
Name CUMBERLAND MUNI
Region United States
Timezone America/Chicago (UTC-5.0)
Plans Departing 3
Arriving 1
Stats Elevation 1,241 ft / 378 m (AMSL)
Location 45.506158° -91.980424°
Runways 2
Magnetic Variation 0.949° W
Sunrise 2018-05-26 10:28:04 UTC / 2018-05-26 05:28:04 Local
Sunset 2018-05-27 01:44:48 UTC / 2018-05-26 20:44:48 Local
Advertisement - Login to hide

Runways

ID Width Length Bearing (true) Bearing (mag) Surface Threshold Offset Overrun Length
09 75 ft / 23 m 4,039 ft / 1,231 m 90.41° 91.36° Asphalt 0 ft / 0 m 0 ft / 0 m
18 120 ft / 37 m 2,038 ft / 621 m 186.01° 186.96° Grass 0 ft / 0 m 0 ft / 0 m
27 75 ft / 23 m 4,039 ft / 1,231 m 270.42° 271.37° Asphalt 0 ft / 0 m 0 ft / 0 m
36 120 ft / 37 m 2,038 ft / 621 m 6.01° 6.96° Grass 0 ft / 0 m 0 ft / 0 m

Map

Weather


0- 5 10 15 20 25 30 35+ Temperature / ° C

Clouds and Precipitation
Forecast for 2018-05-26 06:00 UTC. Updated 5 hours ago

Ground ~20,000 ft ~40,000 ft Winds

METAR

KUBE 261035Z AUTO 21005KT 10SM CLR 16/14 A2971 RMK AO2

TAF

Not found

Frequencies

Unicom 122.80 MHz CTAF/UNICOM
Warning: Do not use this data for real-world aviation or navigation. No guarantee of current accuracy is given.